sensor_id;sensor_type;location;lat;lon;timestamp;pressure;altitude;pressure_sealevel;temperature;humidity
13732;BME280;6937;56.096;12.664;2023-05-21T00:00:26;102317.28;;;11.77;100.00
13732;BME280;6937;56.096;12.664;2023-05-21T00:02:52;102312.09;;;11.74;100.00
13732;BME280;6937;56.096;12.664;2023-05-21T00:05:18;102310.66;;;11.67;100.00
13732;BME280;6937;56.096;12.664;2023-05-21T00:07:45;102310.88;;;11.62;100.00
13732;BME280;6937;56.096;12.664;2023-05-21T00:10:11;102313.50;;;11.64;100.00
13732;BME280;6937;56.096;12.664;2023-05-21T00:12:37;102314.44;;;11.63;100.00
13732;BME280;6937;56.096;12.664;2023-05-21T00:15:03;102301.28;;;11.58;100.00
13732;BME280;6937;56.096;12.664;2023-05-21T00:17:28;102303.94;;;11.58;100.00
13732;BME280;6937;56.096;12.664;2023-05-21T00:19:54;102302.53;;;11.51;100.00
13732;BME280;6937;56.096;12.664;2023-05-21T00:22:21;102300.72;;;11.52;100.00
13732;BME280;6937;56.096;12.664;2023-05-21T00:24:46;102309.31;;;11.58;100.00
13732;BME280;6937;56.096;12.664;2023-05-21T00:27:12;102303.72;;;11.63;100.00
13732;BME280;6937;56.096;12.664;2023-05-21T00:29:38;102302.78;;;11.64;100.00
13732;BME280;6937;56.096;12.664;2023-05-21T00:32:04;102304.81;;;11.59;100.00
13732;BME280;6937;56.096;12.664;2023-05-21T00:34:29;102307.66;;;11.56;100.00
13732;BME280;6937;56.096;12.664;2023-05-21T00:36:55;102308.53;;;11.56;100.00
13732;BME280;6937;56.096;12.664;2023-05-21T00:39:22;102301.28;;;11.58;100.00
13732;BME280;6937;56.096;12.664;2023-05-21T00:41:47;102300.50;;;11.56;100.00
13732;BME280;6937;56.096;12.664;2023-05-21T00:44:13;102293.56;;;11.52;100.00
13732;BME280;6937;56.096;12.664;2023-05-21T00:46:40;102290.25;;;11.47;100.00
13732;BME280;6937;56.096;12.664;2023-05-21T00:49:08;102296.34;;;11.51;100.00
13732;BME280;6937;56.096;12.664;2023-05-21T00:51:34;102294.50;;;11.51;100.00
13732;BME280;6937;56.096;12.664;2023-05-21T00:53:59;102298.16;;;11.50;100.00
13732;BME280;6937;56.096;12.664;2023-05-21T00:56:26;102289.53;;;11.44;100.00
13732;BME280;6937;56.096;12.664;2023-05-21T00:58:53;102290.75;;;11.38;100.00
13732;BME280;6937;56.096;12.664;2023-05-21T01:01:19;102280.03;;;11.38;100.00
13732;BME280;6937;56.096;12.664;2023-05-21T01:03:44;102286.25;;;11.39;100.00
13732;BME280;6937;56.096;12.664;2023-05-21T01:06:12;102293.25;;;11.41;100.00
13732;BME280;6937;56.096;12.664;2023-05-21T01:08:39;102283.50;;;11.40;100.00
13732;BME280;6937;56.096;12.664;2023-05-21T01:11:06;102282.56;;;11.41;100.00
13732;BME280;6937;56.096;12.664;2023-05-21T01:13:34;102277.91;;;11.45;100.00
13732;BME280;6937;56.096;12.664;2023-05-21T01:16:02;102281.63;;;11.42;100.00
13732;BME280;6937;56.096;12.664;2023-05-21T01:18:31;102288.53;;;11.46;100.00
13732;BME280;6937;56.096;12.664;2023-05-21T01:20:59;102293.75;;;11.49;100.00
13732;BME280;6937;56.096;12.664;2023-05-21T01:23:26;102288.38;;;11.49;100.00
13732;BME280;6937;56.096;12.664;2023-05-21T01:25:52;102287.34;;;11.52;100.00
13732;BME280;6937;56.096;12.664;2023-05-21T01:28:17;102291.00;;;11.51;100.00
13732;BME280;6937;56.096;12.664;2023-05-21T01:30:42;102291.81;;;11.51;100.00
13732;BME280;6937;56.096;12.664;2023-05-21T01:33:17;102287.44;;;11.50;100.00
13732;BME280;6937;56.096;12.664;2023-05-21T01:38:28;102277.75;;;11.48;100.00
13732;BME280;6937;56.096;12.664;2023-05-21T01:40:59;102270.09;;;11.40;100.00
13732;BME280;6937;56.096;12.664;2023-05-21T01:43:30;102273.59;;;11.42;100.00
13732;BME280;6937;56.096;12.664;2023-05-21T01:45:57;102265.72;;;11.39;100.00
13732;BME280;6937;56.096;12.664;2023-05-21T01:48:26;102262.94;;;11.41;100.00
13732;BME280;6937;56.096;12.664;2023-05-21T01:50:53;102258.53;;;11.40;100.00
13732;BME280;6937;56.096;12.664;2023-05-21T01:53:20;102256.34;;;11.31;100.00
13732;BME280;6937;56.096;12.664;2023-05-21T01:55:45;102256.50;;;11.28;100.00
13732;BME280;6937;56.096;12.664;2023-05-21T01:58:11;102256.81;;;11.22;100.00
13732;BME280;6937;56.096;12.664;2023-05-21T02:00:36;102252.53;;;11.18;100.00
13732;BME280;6937;56.096;12.664;2023-05-21T02:03:04;102245.63;;;11.13;100.00
13732;BME280;6937;56.096;12.664;2023-05-21T02:05:30;102246.75;;;11.09;100.00
13732;BME280;6937;56.096;12.664;2023-05-21T02:07:55;102245.16;;;11.05;100.00
13732;BME280;6937;56.096;12.664;2023-05-21T02:10:21;102249.66;;;11.05;100.00
13732;BME280;6937;56.096;12.664;2023-05-21T02:12:46;102251.47;;;11.04;100.00
13732;BME280;6937;56.096;12.664;2023-05-21T02:15:12;102240.75;;;11.04;100.00
13732;BME280;6937;56.096;12.664;2023-05-21T02:17:45;102247.13;;;11.02;100.00
13732;BME280;6937;56.096;12.664;2023-05-21T02:20:11;102239.34;;;10.97;100.00
13732;BME280;6937;56.096;12.664;2023-05-21T02:22:42;102233.34;;;10.92;100.00
13732;BME280;6937;56.096;12.664;2023-05-21T02:25:10;102228.16;;;10.89;100.00
13732;BME280;6937;56.096;12.664;2023-05-21T02:27:36;102228.16;;;10.89;100.00
13732;BME280;6937;56.096;12.664;2023-05-21T02:30:12;102234.22;;;10.93;100.00
13732;BME280;6937;56.096;12.664;2023-05-21T02:32:38;102229.72;;;10.93;100.00
13732;BME280;6937;56.096;12.664;2023-05-21T02:35:07;102222.75;;;10.91;100.00
13732;BME280;6937;56.096;12.664;2023-05-21T02:37:34;102222.47;;;10.95;100.00
13732;BME280;6937;56.096;12.664;2023-05-21T02:40:00;102225.31;;;10.92;100.00
13732;BME280;6937;56.096;12.664;2023-05-21T02:42:26;102219.03;;;10.93;100.00
13732;BME280;6937;56.096;12.664;2023-05-21T02:44:52;102223.56;;;10.91;100.00
13732;BME280;6937;56.096;12.664;2023-05-21T02:47:18;102227.28;;;10.89;100.00
13732;BME280;6937;56.096;12.664;2023-05-21T02:49:44;102224.66;;;10.87;100.00
13732;BME280;6937;56.096;12.664;2023-05-21T02:52:10;102227.44;;;10.86;100.00
13732;BME280;6937;56.096;12.664;2023-05-21T02:54:35;102224.94;;;10.83;100.00
13732;BME280;6937;56.096;12.664;2023-05-21T02:57:00;102225.91;;;10.80;100.00
13732;BME280;6937;56.096;12.664;2023-05-21T02:59:26;102233.94;;;10.80;100.00
13732;BME280;6937;56.096;12.664;2023-05-21T03:01:51;102225.00;;;10.81;100.00
13732;BME280;6937;56.096;12.664;2023-05-21T03:04:16;102226.72;;;10.82;100.00
13732;BME280;6937;56.096;12.664;2023-05-21T03:06:42;102222.25;;;10.83;100.00
13732;BME280;6937;56.096;12.664;2023-05-21T03:09:08;102223.41;;;10.77;100.00
13732;BME280;6937;56.096;12.664;2023-05-21T03:11:35;102220.13;;;10.72;100.00
13732;BME280;6937;56.096;12.664;2023-05-21T03:14:00;102215.47;;;10.76;100.00
13732;BME280;6937;56.096;12.664;2023-05-21T03:16:26;102209.25;;;10.75;100.00
13732;BME280;6937;56.096;12.664;2023-05-21T03:18:52;102202.88;;;10.78;100.00
13732;BME280;6937;56.096;12.664;2023-05-21T03:21:18;102204.78;;;10.76;100.00
13732;BME280;6937;56.096;12.664;2023-05-21T03:23:47;102205.72;;;10.75;100.00
13732;BME280;6937;56.096;12.664;2023-05-21T03:26:12;102198.63;;;10.74;100.00
13732;BME280;6937;56.096;12.664;2023-05-21T03:28:38;102199.50;;;10.74;100.00
13732;BME280;6937;56.096;12.664;2023-05-21T03:31:03;102202.88;;;10.78;100.00
13732;BME280;6937;56.096;12.664;2023-05-21T03:33:29;102193.59;;;10.85;100.00
13732;BME280;6937;56.096;12.664;2023-05-21T03:35:54;102198.78;;;10.88;100.00
13732;BME280;6937;56.096;12.664;2023-05-21T03:38:20;102198.72;;;10.89;100.00
13732;BME280;6937;56.096;12.664;2023-05-21T03:40:45;102201.41;;;10.89;100.00
13732;BME280;6937;56.096;12.664;2023-05-21T03:43:11;102195.13;;;10.90;100.00
13732;BME280;6937;56.096;12.664;2023-05-21T03:45:36;102187.09;;;10.90;100.00
13732;BME280;6937;56.096;12.664;2023-05-21T03:48:01;102188.03;;;10.89;100.00
13732;BME280;6937;56.096;12.664;2023-05-21T03:50:27;102196.06;;;10.89;100.00
13732;BME280;6937;56.096;12.664;2023-05-21T03:52:52;102192.34;;;10.92;100.00
13732;BME280;6937;56.096;12.664;2023-05-21T03:55:18;102186.94;;;10.93;100.00
13732;BME280;6937;56.096;12.664;2023-05-21T03:57:43;102184.16;;;10.95;100.00
13732;BME280;6937;56.096;12.664;2023-05-21T04:00:09;102170.72;;;10.96;100.00
13732;BME280;6937;56.096;12.664;2023-05-21T04:02:34;102188.41;;;10.99;100.00
13732;BME280;6937;56.096;12.664;2023-05-21T04:05:00;102182.81;;;11.03;100.00
13732;BME280;6937;56.096;12.664;2023-05-21T04:07:26;102190.78;;;11.05;100.00
13732;BME280;6937;56.096;12.664;2023-05-21T04:09:51;102183.63;;;11.05;100.00
13732;BME280;6937;56.096;12.664;2023-05-21T04:12:17;102183.47;;;11.08;100.00
13732;BME280;6937;56.096;12.664;2023-05-21T04:14:44;102183.31;;;11.11;100.00
13732;BME280;6937;56.096;12.664;2023-05-21T04:17:10;102183.06;;;11.16;100.00
13732;BME280;6937;56.096;12.664;2023-05-21T04:19:37;102175.63;;;11.21;100.00
13732;BME280;6937;56.096;12.664;2023-05-21T04:22:03;102171.84;;;11.25;100.00
13732;BME280;6937;56.096;12.664;2023-05-21T04:24:28;102177.16;;;11.27;100.00
13732;BME280;6937;56.096;12.664;2023-05-21T04:26:53;102173.25;;;11.32;100.00
13732;BME280;6937;56.096;12.664;2023-05-21T04:29:20;102173.81;;;11.39;100.00
13732;BME280;6937;56.096;12.664;2023-05-21T04:31:48;102160.34;;;11.40;100.00
13732;BME280;6937;56.096;12.664;2023-05-21T04:34:15;102161.31;;;11.39;100.00
13732;BME280;6937;56.096;12.664;2023-05-21T04:36:43;102164.69;;;11.43;100.00
13732;BME280;6937;56.096;12.664;2023-05-21T04:39:10;102169.69;;;11.49;100.00
13732;BME280;6937;56.096;12.664;2023-05-21T04:41:39;102163.31;;;11.51;100.00
13732;BME280;6937;56.096;12.664;2023-05-21T04:44:08;102147.00;;;11.56;100.00
13732;BME280;6937;56.096;12.664;2023-05-21T04:46:34;102162.81;;;11.60;100.00
13732;BME280;6937;56.096;12.664;2023-05-21T04:49:00;102162.59;;;11.65;100.00
13732;BME280;6937;56.096;12.664;2023-05-21T04:51:28;102159.59;;;11.71;100.00
13732;BME280;6937;56.096;12.664;2023-05-21T04:53:53;102158.53;;;11.74;100.00
13732;BME280;6937;56.096;12.664;2023-05-21T04:56:19;102158.31;;;11.78;100.00
13732;BME280;6937;56.096;12.664;2023-05-21T04:58:45;102157.28;;;11.81;100.00
13732;BME280;6937;56.096;12.664;2023-05-21T05:01:12;102156.94;;;11.87;100.00
13732;BME280;6937;56.096;12.664;2023-05-21T05:03:37;102145.97;;;11.91;100.00
13732;BME280;6937;56.096;12.664;2023-05-21T05:06:03;102154.69;;;11.95;100.00
13732;BME280;6937;56.096;12.664;2023-05-21T05:08:28;102152.59;;;12.00;100.00
13732;BME280;6937;56.096;12.664;2023-05-21T05:10:54;102147.00;;;12.04;100.00
13732;BME280;6937;56.096;12.664;2023-05-21T05:13:19;102157.38;;;12.10;100.00
13732;BME280;6937;56.096;12.664;2023-05-21T05:15:45;102157.03;;;12.17;100.00
13732;BME280;6937;56.096;12.664;2023-05-21T05:18:11;102148.63;;;12.23;100.00
13732;BME280;6937;56.096;12.664;2023-05-21T05:20:36;102149.25;;;12.28;100.00
13732;BME280;6937;56.096;12.664;2023-05-21T05:23:02;102148.88;;;12.34;100.00
13732;BME280;6937;56.096;12.664;2023-05-21T05:25:27;102150.16;;;12.42;100.00
13732;BME280;6937;56.096;12.664;2023-05-21T05:27:52;102149.91;;;12.47;100.00
13732;BME280;6937;56.096;12.664;2023-05-21T05:30:19;102148.31;;;12.58;100.00
13732;BME280;6937;56.096;12.664;2023-05-21T05:32:44;102156.69;;;12.68;100.00
13732;BME280;6937;56.096;12.664;2023-05-21T05:35:10;102156.16;;;12.77;100.00
13732;BME280;6937;56.096;12.664;2023-05-21T05:37:36;102143.22;;;12.84;100.00
13732;BME280;6937;56.096;12.664;2023-05-21T05:40:02;102140.09;;;12.91;100.00
13732;BME280;6937;56.096;12.664;2023-05-21T05:42:28;102147.94;;;12.94;100.00
13732;BME280;6937;56.096;12.664;2023-05-21T05:44:53;102140.50;;;12.99;100.00
13732;BME280;6937;56.096;12.664;2023-05-21T05:47:20;102142.91;;;13.04;100.00
13732;BME280;6937;56.096;12.664;2023-05-21T05:49:45;102137.09;;;13.12;100.00
13732;BME280;6937;56.096;12.664;2023-05-21T05:52:11;102145.53;;;13.20;100.00
13732;BME280;6937;56.096;12.664;2023-05-21T05:54:36;102146.22;;;13.23;100.00
13732;BME280;6937;56.096;12.664;2023-05-21T05:57:02;102138.84;;;13.27;100.00
13732;BME280;6937;56.096;12.664;2023-05-21T05:59:27;102146.50;;;13.33;100.00
13732;BME280;6937;56.096;12.664;2023-05-21T06:01:53;102143.75;;;13.34;100.00
13732;BME280;6937;56.096;12.664;2023-05-21T06:04:18;102147.84;;;13.40;100.00
13732;BME280;6937;56.096;12.664;2023-05-21T06:06:43;102138.56;;;13.45;100.00
13732;BME280;6937;56.096;12.664;2023-05-21T06:09:09;102139.78;;;13.54;100.00
13732;BME280;6937;56.096;12.664;2023-05-21T06:11:35;102145.34;;;13.65;100.00
13732;BME280;6937;56.096;12.664;2023-05-21T06:14:00;102146.13;;;13.81;100.00
13732;BME280;6937;56.096;12.664;2023-05-21T06:16:26;102138.88;;;13.96;100.00
13732;BME280;6937;56.096;12.664;2023-05-21T06:18:52;102140.59;;;14.11;100.00
13732;BME280;6937;56.096;12.664;2023-05-21T06:21:17;102139.78;;;14.23;100.00
13732;BME280;6937;56.096;12.664;2023-05-21T06:23:42;102140.72;;;14.36;100.00
13732;BME280;6937;56.096;12.664;2023-05-21T06:26:08;102141.75;;;14.48;100.00
13732;BME280;6937;56.096;12.664;2023-05-21T06:28:33;102152.78;;;14.58;100.00
13732;BME280;6937;56.096;12.664;2023-05-21T06:30:58;102155.03;;;14.64;100.00
13732;BME280;6937;56.096;12.664;2023-05-21T06:33:24;102157.22;;;14.71;100.00
13732;BME280;6937;56.096;12.664;2023-05-21T06:35:51;102164.78;;;14.79;100.00
13732;BME280;6937;56.096;12.664;2023-05-21T06:38:16;102165.00;;;14.88;100.00
13732;BME280;6937;56.096;12.664;2023-05-21T06:40:42;102169.66;;;14.99;100.00
13732;BME280;6937;56.096;12.664;2023-05-21T06:43:08;102168.28;;;15.06;100.00
13732;BME280;6937;56.096;12.664;2023-05-21T06:45:34;102176.69;;;15.14;100.00
13732;BME280;6937;56.096;12.664;2023-05-21T06:47:59;102183.81;;;15.28;100.00
13732;BME280;6937;56.096;12.664;2023-05-21T06:50:24;102185.34;;;15.44;100.00
13732;BME280;6937;56.096;12.664;2023-05-21T06:52:50;102180.59;;;15.61;100.00
13732;BME280;6937;56.096;12.664;2023-05-21T06:55:15;102192.13;;;15.75;100.00
13732;BME280;6937;56.096;12.664;2023-05-21T06:57:40;102190.16;;;15.90;100.00
13732;BME280;6937;56.096;12.664;2023-05-21T07:00:08;102184.75;;;16.03;100.00
13732;BME280;6937;56.096;12.664;2023-05-21T07:02:33;102203.00;;;16.12;100.00
13732;BME280;6937;56.096;12.664;2023-05-21T07:04:59;102190.63;;;16.20;100.00
13732;BME280;6937;56.096;12.664;2023-05-21T07:07:24;102196.97;;;16.32;100.00
13732;BME280;6937;56.096;12.664;2023-05-21T07:09:50;102195.59;;;16.50;100.00
13732;BME280;6937;56.096;12.664;2023-05-21T07:12:15;102205.47;;;16.75;100.00
13732;BME280;6937;56.096;12.664;2023-05-21T07:14:40;102210.22;;;16.95;100.00
13732;BME280;6937;56.096;12.664;2023-05-21T07:17:06;102203.53;;;17.12;100.00
13732;BME280;6937;56.096;12.664;2023-05-21T07:19:31;102206.75;;;17.17;100.00
13732;BME280;6937;56.096;12.664;2023-05-21T07:21:56;102208.72;;;17.26;100.00
13732;BME280;6937;56.096;12.664;2023-05-21T07:24:22;102212.81;;;17.31;100.00
13732;BME280;6937;56.096;12.664;2023-05-21T07:26:47;102229.03;;;17.31;100.00
13732;BME280;6937;56.096;12.664;2023-05-21T07:29:13;102225.59;;;17.40;100.00
13732;BME280;6937;56.096;12.664;2023-05-21T07:31:38;102231.50;;;17.46;100.00
13732;BME280;6937;56.096;12.664;2023-05-21T07:34:03;102227.47;;;17.51;100.00
13732;BME280;6937;56.096;12.664;2023-05-21T07:36:29;102230.91;;;17.53;100.00
13732;BME280;6937;56.096;12.664;2023-05-21T07:38:55;102223.53;;;17.55;100.00
13732;BME280;6937;56.096;12.664;2023-05-21T07:41:20;102224.81;;;17.62;100.00
13732;BME280;6937;56.096;12.664;2023-05-21T07:43:46;102223.22;;;17.71;100.00
13732;BME280;6937;56.096;12.664;2023-05-21T07:46:12;102224.34;;;17.79;100.00
13732;BME280;6937;56.096;12.664;2023-05-21T07:48:37;102220.06;;;17.99;100.00
13732;BME280;6937;56.096;12.664;2023-05-21T07:51:03;102219.78;;;18.24;100.00
13732;BME280;6937;56.096;12.664;2023-05-21T07:53:28;102212.00;;;18.42;100.00
13732;BME280;6937;56.096;12.664;2023-05-21T07:55:57;102220.47;;;18.60;100.00
13732;BME280;6937;56.096;12.664;2023-05-21T07:58:22;102225.25;;;18.67;100.00
13732;BME280;6937;56.096;12.664;2023-05-21T08:00:47;102222.75;;;18.75;100.00
13732;BME280;6937;56.096;12.664;2023-05-21T08:03:14;102217.84;;;18.80;100.00
13732;BME280;6937;56.096;12.664;2023-05-21T08:05:43;102222.88;;;18.85;100.00
13732;BME280;6937;56.096;12.664;2023-05-21T08:08:16;102237.69;;;19.02;100.00
13732;BME280;6937;56.096;12.664;2023-05-21T08:10:42;102234.81;;;19.14;100.00
13732;BME280;6937;56.096;12.664;2023-05-21T08:13:07;102244.47;;;19.28;100.00
13732;BME280;6937;56.096;12.664;2023-05-21T08:15:33;102239.72;;;19.41;100.00
13732;BME280;6937;56.096;12.664;2023-05-21T08:17:58;102244.56;;;19.58;100.00
13732;BME280;6937;56.096;12.664;2023-05-21T08:20:24;102239.22;;;19.68;100.00
13732;BME280;6937;56.096;12.664;2023-05-21T08:22:50;102238.41;;;19.77;100.00
13732;BME280;6937;56.096;12.664;2023-05-21T08:25:15;102245.47;;;19.89;100.00
13732;BME280;6937;56.096;12.664;2023-05-21T08:27:41;102241.81;;;20.00;100.00
13732;BME280;6937;56.096;12.664;2023-05-21T08:30:07;102229.13;;;20.10;100.00
13732;BME280;6937;56.096;12.664;2023-05-21T08:32:35;102237.91;;;20.23;100.00
13732;BME280;6937;56.096;12.664;2023-05-21T08:35:00;102236.97;;;20.34;100.00
13732;BME280;6937;56.096;12.664;2023-05-21T08:37:26;102234.28;;;20.43;100.00
13732;BME280;6937;56.096;12.664;2023-05-21T08:39:51;102243.03;;;20.56;100.00
13732;BME280;6937;56.096;12.664;2023-05-21T08:42:42;102238.34;;;20.78;100.00
13732;BME280;6937;56.096;12.664;2023-05-21T08:45:14;102235.94;;;20.94;100.00
13732;BME280;6937;56.096;12.664;2023-05-21T08:47:42;102242.66;;;21.09;100.00
13732;BME280;6937;56.096;12.664;2023-05-21T08:50:13;102246.13;;;21.20;100.00
13732;BME280;6937;56.096;12.664;2023-05-21T08:52:39;102259.00;;;21.28;100.00
13732;BME280;6937;56.096;12.664;2023-05-21T08:55:05;102253.72;;;21.36;100.00
13732;BME280;6937;56.096;12.664;2023-05-21T08:57:31;102260.00;;;21.46;100.00
13732;BME280;6937;56.096;12.664;2023-05-21T08:59:58;102261.56;;;21.49;100.00
13732;BME280;6937;56.096;12.664;2023-05-21T09:02:23;102261.84;;;21.46;100.00
13732;BME280;6937;56.096;12.664;2023-05-21T09:04:52;102254.25;;;21.49;100.00
13732;BME280;6937;56.096;12.664;2023-05-21T09:07:23;102250.84;;;21.47;100.00
13732;BME280;6937;56.096;12.664;2023-05-21T09:09:54;102243.97;;;21.43;100.00
13732;BME280;6937;56.096;12.664;2023-05-21T09:12:25;102245.84;;;21.33;100.00
13732;BME280;6937;56.096;12.664;2023-05-21T09:14:51;102252.00;;;21.26;100.00
13732;BME280;6937;56.096;12.664;2023-05-21T09:17:17;102263.16;;;21.23;100.00
13732;BME280;6937;56.096;12.664;2023-05-21T09:20:03;102245.25;;;21.20;100.00
13732;BME280;6937;56.096;12.664;2023-05-21T09:22:32;102254.88;;;21.14;100.00
13732;BME280;6937;56.096;12.664;2023-05-21T09:24:58;102250.13;;;21.16;100.00
13732;BME280;6937;56.096;12.664;2023-05-21T09:27:23;102247.28;;;21.18;100.00
13732;BME280;6937;56.096;12.664;2023-05-21T09:29:48;102241.56;;;21.21;100.00
13732;BME280;6937;56.096;12.664;2023-05-21T09:32:16;102236.38;;;21.28;100.00
13732;BME280;6937;56.096;12.664;2023-05-21T09:34:41;102250.56;;;21.31;100.00
13732;BME280;6937;56.096;12.664;2023-05-21T09:37:07;102240.41;;;21.33;100.00
13732;BME280;6937;56.096;12.664;2023-05-21T09:39:34;102239.50;;;21.42;100.00
13732;BME280;6937;56.096;12.664;2023-05-21T09:41:59;102243.22;;;21.51;100.00
13732;BME280;6937;56.096;12.664;2023-05-21T09:44:25;102237.06;;;21.58;100.00
13732;BME280;6937;56.096;12.664;2023-05-21T09:46:55;102234.47;;;21.66;100.00
13732;BME280;6937;56.096;12.664;2023-05-21T09:49:22;102230.09;;;21.83;100.00
13732;BME280;6937;56.096;12.664;2023-05-21T09:51:58;102228.47;;;22.09;100.00
13732;BME280;6937;56.096;12.664;2023-05-21T09:54:25;102228.91;;;22.32;100.00
13732;BME280;6937;56.096;12.664;2023-05-21T09:56:55;102218.78;;;22.52;100.00
13732;BME280;6937;56.096;12.664;2023-05-21T09:59:20;102223.34;;;22.79;100.00
13732;BME280;6937;56.096;12.664;2023-05-21T10:01:49;102214.63;;;22.93;100.00
13732;BME280;6937;56.096;12.664;2023-05-21T10:04:16;102209.81;;;23.04;100.00
13732;BME280;6937;56.096;12.664;2023-05-21T10:06:42;102214.75;;;23.27;100.00
13732;BME280;6937;56.096;12.664;2023-05-21T10:09:14;102201.97;;;23.45;100.00
13732;BME280;6937;56.096;12.664;2023-05-21T10:11:42;102207.22;;;23.64;100.00
13732;BME280;6937;56.096;12.664;2023-05-21T10:14:18;102199.13;;;23.80;100.00
13732;BME280;6937;56.096;12.664;2023-05-21T10:16:45;102207.66;;;23.85;100.00
13732;BME280;6937;56.096;12.664;2023-05-21T10:19:11;102206.22;;;23.99;100.00
13732;BME280;6937;56.096;12.664;2023-05-21T10:21:38;102205.81;;;24.20;100.00
13732;BME280;6937;56.096;12.664;2023-05-21T10:24:05;102208.09;;;24.32;100.00
13732;BME280;6937;56.096;12.664;2023-05-21T10:26:32;102202.00;;;24.46;100.00
13732;BME280;6937;56.096;12.664;2023-05-21T10:28:57;102198.59;;;24.52;100.00
13732;BME280;6937;56.096;12.664;2023-05-21T10:31:25;102200.47;;;24.60;100.00
13732;BME280;6937;56.096;12.664;2023-05-21T10:33:52;102206.16;;;24.83;100.00
13732;BME280;6937;56.096;12.664;2023-05-21T10:36:19;102197.66;;;25.02;100.00
13732;BME280;6937;56.096;12.664;2023-05-21T10:38:46;102199.88;;;24.98;100.00
13732;BME280;6937;56.096;12.664;2023-05-21T10:41:14;102196.47;;;25.05;100.00
13732;BME280;6937;56.096;12.664;2023-05-21T10:43:53;102196.13;;;25.24;100.00
13732;BME280;6937;56.096;12.664;2023-05-21T10:49:25;102191.84;;;24.31;100.00
13732;BME280;6937;56.096;12.664;2023-05-21T10:52:33;102184.16;;;24.26;100.00
13732;BME280;6937;56.096;12.664;2023-05-21T11:00:07;102190.31;;;23.94;100.00
13732;BME280;6937;56.096;12.664;2023-05-21T11:02:33;102190.28;;;23.86;100.00
13732;BME280;6937;56.096;12.664;2023-05-21T11:05:00;102191.63;;;23.82;100.00
13732;BME280;6937;56.096;12.664;2023-05-21T11:07:49;102195.16;;;23.75;100.00
13732;BME280;6937;56.096;12.664;2023-05-21T11:13:14;102187.31;;;23.46;100.00
13732;BME280;6937;56.096;12.664;2023-05-21T11:21:03;102180.44;;;23.68;100.00
13732;BME280;6937;56.096;12.664;2023-05-21T11:26:18;102178.50;;;23.86;100.00
13732;BME280;6937;56.096;12.664;2023-05-21T11:28:44;102187.25;;;23.97;100.00
13732;BME280;6937;56.096;12.664;2023-05-21T11:31:24;102180.25;;;23.95;100.00
13732;BME280;6937;56.096;12.664;2023-05-21T11:34:20;102182.44;;;24.17;100.00
13732;BME280;6937;56.096;12.664;2023-05-21T11:39:52;102182.75;;;23.88;100.00
13732;BME280;6937;56.096;12.664;2023-05-21T11:42:29;102168.88;;;23.74;100.00
13732;BME280;6937;56.096;12.664;2023-05-21T11:44:55;102171.44;;;23.24;100.00
13732;BME280;6937;56.096;12.664;2023-05-21T11:47:23;102180.13;;;23.01;100.00
13732;BME280;6937;56.096;12.664;2023-05-21T11:49:50;102174.47;;;23.03;100.00
13732;BME280;6937;56.096;12.664;2023-05-21T11:52:15;102177.22;;;23.21;100.00
13732;BME280;6937;56.096;12.664;2023-05-21T11:54:43;102169.44;;;23.34;100.00
13732;BME280;6937;56.096;12.664;2023-05-21T11:57:13;102171.88;;;23.63;100.00
13732;BME280;6937;56.096;12.664;2023-05-21T11:59:40;102174.72;;;23.79;100.00
13732;BME280;6937;56.096;12.664;2023-05-21T12:02:06;102161.63;;;23.90;100.00
13732;BME280;6937;56.096;12.664;2023-05-21T12:04:33;102176.09;;;24.17;100.00
13732;BME280;6937;56.096;12.664;2023-05-21T12:07:09;102168.38;;;24.12;100.00
13732;BME280;6937;56.096;12.664;2023-05-21T12:09:41;102164.84;;;24.20;100.00
13732;BME280;6937;56.096;12.664;2023-05-21T12:12:08;102180.56;;;24.18;100.00
13732;BME280;6937;56.096;12.664;2023-05-21T12:14:37;102171.03;;;23.96;100.00
13732;BME280;6937;56.096;12.664;2023-05-21T12:17:03;102168.59;;;24.19;100.00
13732;BME280;6937;56.096;12.664;2023-05-21T12:19:36;102163.50;;;24.24;100.00
13732;BME280;6937;56.096;12.664;2023-05-21T12:22:05;102172.81;;;24.13;100.00
13732;BME280;6937;56.096;12.664;2023-05-21T12:24:32;102170.91;;;24.47;100.00
13732;BME280;6937;56.096;12.664;2023-05-21T12:26:59;102166.16;;;24.74;100.00
13732;BME280;6937;56.096;12.664;2023-05-21T12:29:26;102170.31;;;24.94;100.00
13732;BME280;6937;56.096;12.664;2023-05-21T12:31:52;102170.16;;;24.95;100.00
13732;BME280;6937;56.096;12.664;2023-05-21T12:34:43;102161.09;;;25.19;100.00
13732;BME280;6937;56.096;12.664;2023-05-21T12:37:16;102156.13;;;24.98;100.00
13732;BME280;6937;56.096;12.664;2023-05-21T12:39:43;102156.97;;;24.91;100.00
13732;BME280;6937;56.096;12.664;2023-05-21T12:42:09;102155.41;;;25.21;100.00
13732;BME280;6937;56.096;12.664;2023-05-21T12:44:34;102163.84;;;25.90;100.00
13732;BME280;6937;56.096;12.664;2023-05-21T12:47:00;102156.78;;;26.43;100.00
13732;BME280;6937;56.096;12.664;2023-05-21T12:49:33;102148.00;;;27.16;99.49
13732;BME280;6937;56.096;12.664;2023-05-21T12:52:06;102146.47;;;27.80;94.10
13732;BME280;6937;56.096;12.664;2023-05-21T12:54:34;102149.47;;;28.29;90.80
13732;BME280;6937;56.096;12.664;2023-05-21T12:57:27;102146.25;;;27.00;81.38
13732;BME280;6937;56.096;12.664;2023-05-21T12:59:59;102125.72;;;26.12;88.16
13732;BME280;6937;56.096;12.664;2023-05-21T13:02:27;102124.81;;;25.88;90.05
13732;BME280;6937;56.096;12.664;2023-05-21T13:05:03;102116.09;;;25.14;89.98